sensor_id;sensor_type;location;lat;lon;timestamp;P1;durP1;ratioP1;P2;durP2;ratioP2
31848;SDS011;18414;59.352;18.152;2023-05-10T00:01:21;9.07;;;5.10;;
31848;SDS011;18414;59.352;18.152;2023-05-10T00:03:46;12.23;;;5.80;;
31848;SDS011;18414;59.352;18.152;2023-05-10T00:06:12;9.50;;;5.70;;
31848;SDS011;18414;59.352;18.152;2023-05-10T00:08:37;8.93;;;5.80;;
31848;SDS011;18414;59.352;18.152;2023-05-10T00:11:03;10.50;;;5.53;;
31848;SDS011;18414;59.352;18.152;2023-05-10T00:13:28;6.63;;;5.13;;
31848;SDS011;18414;59.352;18.152;2023-05-10T00:15:53;11.13;;;6.00;;
31848;SDS011;18414;59.352;18.152;2023-05-10T00:18:19;9.27;;;6.00;;
31848;SDS011;18414;59.352;18.152;2023-05-10T00:20:44;8.60;;;5.60;;
31848;SDS011;18414;59.352;18.152;2023-05-10T00:23:11;8.63;;;5.70;;
31848;SDS011;18414;59.352;18.152;2023-05-10T00:25:36;10.43;;;5.90;;
31848;SDS011;18414;59.352;18.152;2023-05-10T00:28:02;12.70;;;6.00;;
31848;SDS011;18414;59.352;18.152;2023-05-10T00:30:27;10.37;;;5.30;;
31848;SDS011;18414;59.352;18.152;2023-05-10T00:32:53;7.03;;;5.47;;
31848;SDS011;18414;59.352;18.152;2023-05-10T00:35:18;9.10;;;5.37;;
31848;SDS011;18414;59.352;18.152;2023-05-10T00:37:43;10.53;;;5.57;;
31848;SDS011;18414;59.352;18.152;2023-05-10T00:40:09;7.83;;;5.50;;
31848;SDS011;18414;59.352;18.152;2023-05-10T00:42:35;8.17;;;6.00;;
31848;SDS011;18414;59.352;18.152;2023-05-10T00:45:00;12.17;;;5.73;;
31848;SDS011;18414;59.352;18.152;2023-05-10T00:47:25;11.40;;;6.00;;
31848;SDS011;18414;59.352;18.152;2023-05-10T00:49:51;14.00;;;6.23;;
31848;SDS011;18414;59.352;18.152;2023-05-10T00:52:16;9.30;;;5.90;;
31848;SDS011;18414;59.352;18.152;2023-05-10T00:54:42;11.23;;;6.47;;
31848;SDS011;18414;59.352;18.152;2023-05-10T00:57:07;8.70;;;6.07;;
31848;SDS011;18414;59.352;18.152;2023-05-10T00:59:33;8.00;;;6.00;;
31848;SDS011;18414;59.352;18.152;2023-05-10T01:01:58;7.50;;;5.67;;
31848;SDS011;18414;59.352;18.152;2023-05-10T01:04:23;8.93;;;5.90;;
31848;SDS011;18414;59.352;18.152;2023-05-10T01:06:50;10.63;;;6.43;;
31848;SDS011;18414;59.352;18.152;2023-05-10T01:09:16;9.77;;;6.63;;
31848;SDS011;18414;59.352;18.152;2023-05-10T01:11:42;10.23;;;6.17;;
31848;SDS011;18414;59.352;18.152;2023-05-10T01:14:08;8.57;;;6.00;;
31848;SDS011;18414;59.352;18.152;2023-05-10T01:16:35;10.20;;;5.90;;
31848;SDS011;18414;59.352;18.152;2023-05-10T01:19:04;9.43;;;6.10;;
31848;SDS011;18414;59.352;18.152;2023-05-10T01:32:59;9.53;;;5.73;;
31848;SDS011;18414;59.352;18.152;2023-05-10T01:38:22;7.77;;;5.80;;
31848;SDS011;18414;59.352;18.152;2023-05-10T01:43:48;11.10;;;6.23;;
31848;SDS011;18414;59.352;18.152;2023-05-10T01:46:20;12.17;;;6.13;;
31848;SDS011;18414;59.352;18.152;2023-05-10T01:48:54;8.60;;;6.17;;
31848;SDS011;18414;59.352;18.152;2023-05-10T01:51:24;9.07;;;5.63;;
31848;SDS011;18414;59.352;18.152;2023-05-10T01:53:54;9.33;;;6.03;;
31848;SDS011;18414;59.352;18.152;2023-05-10T01:56:24;8.27;;;6.13;;
31848;SDS011;18414;59.352;18.152;2023-05-10T01:58:51;9.23;;;6.20;;
31848;SDS011;18414;59.352;18.152;2023-05-10T02:01:17;8.43;;;6.20;;
31848;SDS011;18414;59.352;18.152;2023-05-10T02:03:45;7.80;;;6.07;;
31848;SDS011;18414;59.352;18.152;2023-05-10T02:06:12;7.77;;;5.53;;
31848;SDS011;18414;59.352;18.152;2023-05-10T02:08:39;7.13;;;4.60;;
31848;SDS011;18414;59.352;18.152;2023-05-10T02:11:05;4.70;;;4.00;;
31848;SDS011;18414;59.352;18.152;2023-05-10T02:13:31;6.30;;;3.70;;
31848;SDS011;18414;59.352;18.152;2023-05-10T02:15:57;4.20;;;3.40;;
31848;SDS011;18414;59.352;18.152;2023-05-10T02:18:23;3.90;;;3.40;;
31848;SDS011;18414;59.352;18.152;2023-05-10T02:20:49;3.10;;;2.50;;
31848;SDS011;18414;59.352;18.152;2023-05-10T02:23:16;4.43;;;3.20;;
31848;SDS011;18414;59.352;18.152;2023-05-10T02:25:42;4.53;;;3.73;;
31848;SDS011;18414;59.352;18.152;2023-05-10T02:28:08;6.67;;;3.70;;
31848;SDS011;18414;59.352;18.152;2023-05-10T02:30:35;4.00;;;3.10;;
31848;SDS011;18414;59.352;18.152;2023-05-10T02:33:01;2.87;;;2.30;;
31848;SDS011;18414;59.352;18.152;2023-05-10T02:35:28;7.43;;;4.87;;
31848;SDS011;18414;59.352;18.152;2023-05-10T02:37:54;3.20;;;2.90;;
31848;SDS011;18414;59.352;18.152;2023-05-10T02:40:19;5.30;;;3.67;;
31848;SDS011;18414;59.352;18.152;2023-05-10T02:42:47;5.27;;;4.30;;
31848;SDS011;18414;59.352;18.152;2023-05-10T02:45:15;3.97;;;3.07;;
31848;SDS011;18414;59.352;18.152;2023-05-10T02:47:43;4.97;;;2.67;;
31848;SDS011;18414;59.352;18.152;2023-05-10T02:50:08;5.27;;;3.70;;
31848;SDS011;18414;59.352;18.152;2023-05-10T02:52:57;3.63;;;3.20;;
31848;SDS011;18414;59.352;18.152;2023-05-10T02:55:22;5.93;;;3.47;;
31848;SDS011;18414;59.352;18.152;2023-05-10T02:57:51;3.87;;;3.37;;
31848;SDS011;18414;59.352;18.152;2023-05-10T03:00:19;6.90;;;4.20;;
31848;SDS011;18414;59.352;18.152;2023-05-10T03:02:44;6.30;;;5.00;;
31848;SDS011;18414;59.352;18.152;2023-05-10T03:05:10;6.90;;;4.57;;
31848;SDS011;18414;59.352;18.152;2023-05-10T03:07:35;6.47;;;4.50;;
31848;SDS011;18414;59.352;18.152;2023-05-10T03:10:01;6.93;;;4.93;;
31848;SDS011;18414;59.352;18.152;2023-05-10T03:12:31;7.10;;;4.83;;
31848;SDS011;18414;59.352;18.152;2023-05-10T03:15:07;8.00;;;4.90;;
31848;SDS011;18414;59.352;18.152;2023-05-10T03:17:51;6.57;;;5.23;;
31848;SDS011;18414;59.352;18.152;2023-05-10T03:20:31;5.50;;;4.40;;
31848;SDS011;18414;59.352;18.152;2023-05-10T03:23:13;5.40;;;4.90;;
31848;SDS011;18414;59.352;18.152;2023-05-10T03:25:41;6.30;;;5.50;;
31848;SDS011;18414;59.352;18.152;2023-05-10T03:28:08;5.57;;;4.67;;
31848;SDS011;18414;59.352;18.152;2023-05-10T03:30:34;12.40;;;5.57;;
31848;SDS011;18414;59.352;18.152;2023-05-10T03:33:04;6.33;;;5.17;;
31848;SDS011;18414;59.352;18.152;2023-05-10T03:35:31;6.63;;;5.40;;
31848;SDS011;18414;59.352;18.152;2023-05-10T03:37:57;6.57;;;5.03;;
31848;SDS011;18414;59.352;18.152;2023-05-10T03:40:23;7.17;;;4.80;;
31848;SDS011;18414;59.352;18.152;2023-05-10T03:42:48;7.30;;;5.55;;
31848;SDS011;18414;59.352;18.152;2023-05-10T03:45:14;6.15;;;5.55;;
31848;SDS011;18414;59.352;18.152;2023-05-10T03:47:40;7.43;;;5.25;;
31848;SDS011;18414;59.352;18.152;2023-05-10T03:50:05;7.35;;;5.05;;
31848;SDS011;18414;59.352;18.152;2023-05-10T03:52:31;6.50;;;4.88;;
31848;SDS011;18414;59.352;18.152;2023-05-10T03:54:57;7.00;;;5.50;;
31848;SDS011;18414;59.352;18.152;2023-05-10T03:57:22;8.38;;;5.10;;
31848;SDS011;18414;59.352;18.152;2023-05-10T03:59:47;6.70;;;5.45;;
31848;SDS011;18414;59.352;18.152;2023-05-10T04:02:13;11.57;;;5.20;;
31848;SDS011;18414;59.352;18.152;2023-05-10T04:04:38;7.05;;;5.43;;
31848;SDS011;18414;59.352;18.152;2023-05-10T04:07:04;6.60;;;5.10;;
31848;SDS011;18414;59.352;18.152;2023-05-10T04:09:29;7.13;;;5.20;;
31848;SDS011;18414;59.352;18.152;2023-05-10T04:11:54;8.83;;;5.43;;
31848;SDS011;18414;59.352;18.152;2023-05-10T04:14:20;7.13;;;5.37;;
31848;SDS011;18414;59.352;18.152;2023-05-10T04:16:45;7.37;;;5.83;;
31848;SDS011;18414;59.352;18.152;2023-05-10T04:19:10;6.87;;;5.40;;
31848;SDS011;18414;59.352;18.152;2023-05-10T04:21:36;6.57;;;5.27;;
31848;SDS011;18414;59.352;18.152;2023-05-10T04:24:02;7.07;;;5.93;;
31848;SDS011;18414;59.352;18.152;2023-05-10T04:26:27;7.93;;;5.83;;
31848;SDS011;18414;59.352;18.152;2023-05-10T04:28:53;7.77;;;5.70;;
31848;SDS011;18414;59.352;18.152;2023-05-10T04:31:18;8.27;;;5.83;;
31848;SDS011;18414;59.352;18.152;2023-05-10T04:33:43;10.43;;;5.93;;
31848;SDS011;18414;59.352;18.152;2023-05-10T04:36:09;8.27;;;5.60;;
31848;SDS011;18414;59.352;18.152;2023-05-10T04:38:34;6.83;;;5.13;;
31848;SDS011;18414;59.352;18.152;2023-05-10T04:41:04;8.37;;;6.17;;
31848;SDS011;18414;59.352;18.152;2023-05-10T04:43:33;10.00;;;5.50;;
31848;SDS011;18414;59.352;18.152;2023-05-10T04:45:59;8.07;;;5.33;;
31848;SDS011;18414;59.352;18.152;2023-05-10T04:48:24;6.33;;;5.40;;
31848;SDS011;18414;59.352;18.152;2023-05-10T04:50:49;9.30;;;5.47;;
31848;SDS011;18414;59.352;18.152;2023-05-10T04:53:15;10.37;;;5.17;;
31848;SDS011;18414;59.352;18.152;2023-05-10T04:55:40;6.57;;;4.80;;
31848;SDS011;18414;59.352;18.152;2023-05-10T04:58:05;8.17;;;4.90;;
31848;SDS011;18414;59.352;18.152;2023-05-10T05:00:31;7.43;;;5.10;;
31848;SDS011;18414;59.352;18.152;2023-05-10T05:02:58;7.70;;;4.73;;
31848;SDS011;18414;59.352;18.152;2023-05-10T05:05:24;10.53;;;5.07;;
31848;SDS011;18414;59.352;18.152;2023-05-10T05:07:50;11.53;;;6.00;;
31848;SDS011;18414;59.352;18.152;2023-05-10T05:10:15;12.07;;;5.10;;
31848;SDS011;18414;59.352;18.152;2023-05-10T05:12:41;6.67;;;4.80;;
31848;SDS011;18414;59.352;18.152;2023-05-10T05:15:06;9.03;;;5.53;;
31848;SDS011;18414;59.352;18.152;2023-05-10T05:17:34;14.33;;;5.60;;
31848;SDS011;18414;59.352;18.152;2023-05-10T05:19:59;15.27;;;5.80;;
31848;SDS011;18414;59.352;18.152;2023-05-10T05:22:24;5.10;;;4.60;;
31848;SDS011;18414;59.352;18.152;2023-05-10T05:24:54;8.07;;;4.37;;
31848;SDS011;18414;59.352;18.152;2023-05-10T05:27:20;8.40;;;4.90;;
31848;SDS011;18414;59.352;18.152;2023-05-10T05:29:48;8.23;;;4.87;;
31848;SDS011;18414;59.352;18.152;2023-05-10T05:32:14;9.67;;;4.67;;
31848;SDS011;18414;59.352;18.152;2023-05-10T05:34:39;8.23;;;4.43;;
31848;SDS011;18414;59.352;18.152;2023-05-10T05:37:05;8.23;;;4.73;;
31848;SDS011;18414;59.352;18.152;2023-05-10T05:39:30;6.80;;;4.90;;
31848;SDS011;18414;59.352;18.152;2023-05-10T05:41:56;12.67;;;4.57;;
31848;SDS011;18414;59.352;18.152;2023-05-10T05:44:21;8.77;;;4.53;;
31848;SDS011;18414;59.352;18.152;2023-05-10T05:46:46;6.80;;;4.50;;
31848;SDS011;18414;59.352;18.152;2023-05-10T05:49:12;8.30;;;4.57;;
31848;SDS011;18414;59.352;18.152;2023-05-10T05:51:37;6.00;;;4.40;;
31848;SDS011;18414;59.352;18.152;2023-05-10T05:54:02;6.33;;;4.17;;
31848;SDS011;18414;59.352;18.152;2023-05-10T05:56:29;11.73;;;4.27;;
31848;SDS011;18414;59.352;18.152;2023-05-10T05:58:54;8.03;;;4.63;;
31848;SDS011;18414;59.352;18.152;2023-05-10T06:01:20;17.07;;;5.33;;
31848;SDS011;18414;59.352;18.152;2023-05-10T06:03:46;12.03;;;4.40;;
31848;SDS011;18414;59.352;18.152;2023-05-10T06:06:11;9.63;;;4.78;;
31848;SDS011;18414;59.352;18.152;2023-05-10T06:08:38;9.23;;;4.07;;
31848;SDS011;18414;59.352;18.152;2023-05-10T06:11:03;6.37;;;4.17;;
31848;SDS011;18414;59.352;18.152;2023-05-10T06:13:29;5.83;;;4.00;;
31848;SDS011;18414;59.352;18.152;2023-05-10T06:15:57;11.85;;;4.32;;
31848;SDS011;18414;59.352;18.152;2023-05-10T06:18:23;8.20;;;4.70;;
31848;SDS011;18414;59.352;18.152;2023-05-10T06:20:50;8.88;;;4.00;;
31848;SDS011;18414;59.352;18.152;2023-05-10T06:23:16;9.50;;;4.30;;
31848;SDS011;18414;59.352;18.152;2023-05-10T06:25:42;12.18;;;4.10;;
31848;SDS011;18414;59.352;18.152;2023-05-10T06:28:07;9.98;;;4.00;;
31848;SDS011;18414;59.352;18.152;2023-05-10T06:30:33;6.68;;;4.25;;
31848;SDS011;18414;59.352;18.152;2023-05-10T06:33:00;11.98;;;4.05;;
31848;SDS011;18414;59.352;18.152;2023-05-10T06:35:26;7.43;;;4.18;;
31848;SDS011;18414;59.352;18.152;2023-05-10T06:37:51;6.07;;;4.13;;
31848;SDS011;18414;59.352;18.152;2023-05-10T06:40:17;6.13;;;3.85;;
31848;SDS011;18414;59.352;18.152;2023-05-10T06:42:43;10.63;;;4.15;;
31848;SDS011;18414;59.352;18.152;2023-05-10T06:45:09;8.13;;;4.32;;
31848;SDS011;18414;59.352;18.152;2023-05-10T06:47:35;8.77;;;3.90;;
31848;SDS011;18414;59.352;18.152;2023-05-10T06:50:00;6.95;;;3.95;;
31848;SDS011;18414;59.352;18.152;2023-05-10T06:52:28;8.70;;;3.83;;
31848;SDS011;18414;59.352;18.152;2023-05-10T06:54:53;6.32;;;4.15;;
31848;SDS011;18414;59.352;18.152;2023-05-10T06:57:19;6.00;;;3.92;;
31848;SDS011;18414;59.352;18.152;2023-05-10T06:59:45;7.97;;;3.92;;
31848;SDS011;18414;59.352;18.152;2023-05-10T07:02:11;5.88;;;3.60;;
31848;SDS011;18414;59.352;18.152;2023-05-10T07:04:36;7.90;;;4.18;;
31848;SDS011;18414;59.352;18.152;2023-05-10T07:07:01;7.55;;;4.20;;
31848;SDS011;18414;59.352;18.152;2023-05-10T07:09:28;6.95;;;4.32;;
31848;SDS011;18414;59.352;18.152;2023-05-10T07:11:53;9.63;;;3.75;;
31848;SDS011;18414;59.352;18.152;2023-05-10T07:14:19;8.48;;;3.75;;
31848;SDS011;18414;59.352;18.152;2023-05-10T07:16:44;8.82;;;3.70;;
31848;SDS011;18414;59.352;18.152;2023-05-10T07:19:10;7.47;;;3.67;;
31848;SDS011;18414;59.352;18.152;2023-05-10T07:21:35;8.70;;;3.30;;
31848;SDS011;18414;59.352;18.152;2023-05-10T07:24:01;12.00;;;3.83;;
31848;SDS011;18414;59.352;18.152;2023-05-10T07:26:27;6.65;;;3.25;;
31848;SDS011;18414;59.352;18.152;2023-05-10T07:28:53;9.63;;;3.53;;
31848;SDS011;18414;59.352;18.152;2023-05-10T07:31:19;6.17;;;3.60;;
31848;SDS011;18414;59.352;18.152;2023-05-10T07:33:45;8.57;;;4.25;;
31848;SDS011;18414;59.352;18.152;2023-05-10T07:36:12;14.98;;;3.92;;
31848;SDS011;18414;59.352;18.152;2023-05-10T07:38:38;11.60;;;3.85;;
31848;SDS011;18414;59.352;18.152;2023-05-10T07:41:03;5.57;;;3.60;;
31848;SDS011;18414;59.352;18.152;2023-05-10T07:43:28;7.88;;;3.75;;
31848;SDS011;18414;59.352;18.152;2023-05-10T07:45:54;9.50;;;3.80;;
31848;SDS011;18414;59.352;18.152;2023-05-10T07:48:19;6.50;;;3.22;;
31848;SDS011;18414;59.352;18.152;2023-05-10T07:50:45;6.60;;;3.13;;
31848;SDS011;18414;59.352;18.152;2023-05-10T07:53:10;4.50;;;3.30;;
31848;SDS011;18414;59.352;18.152;2023-05-10T07:55:36;7.43;;;3.58;;
31848;SDS011;18414;59.352;18.152;2023-05-10T07:58:01;7.60;;;3.80;;
31848;SDS011;18414;59.352;18.152;2023-05-10T08:00:26;5.43;;;3.65;;
31848;SDS011;18414;59.352;18.152;2023-05-10T08:02:52;5.20;;;3.67;;
31848;SDS011;18414;59.352;18.152;2023-05-10T08:05:18;6.93;;;3.72;;
31848;SDS011;18414;59.352;18.152;2023-05-10T08:07:43;5.70;;;3.50;;
31848;SDS011;18414;59.352;18.152;2023-05-10T08:10:09;7.25;;;3.40;;
31848;SDS011;18414;59.352;18.152;2023-05-10T08:12:35;5.78;;;3.30;;
31848;SDS011;18414;59.352;18.152;2023-05-10T08:15:01;7.70;;;3.60;;
31848;SDS011;18414;59.352;18.152;2023-05-10T08:17:26;5.68;;;3.58;;
31848;SDS011;18414;59.352;18.152;2023-05-10T08:19:52;7.05;;;3.00;;
31848;SDS011;18414;59.352;18.152;2023-05-10T08:22:17;11.10;;;3.42;;
31848;SDS011;18414;59.352;18.152;2023-05-10T08:24:42;10.20;;;3.47;;
31848;SDS011;18414;59.352;18.152;2023-05-10T08:27:08;8.70;;;3.58;;
31848;SDS011;18414;59.352;18.152;2023-05-10T08:29:34;5.22;;;3.30;;
31848;SDS011;18414;59.352;18.152;2023-05-10T08:31:59;8.70;;;3.20;;
31848;SDS011;18414;59.352;18.152;2023-05-10T08:34:26;3.97;;;3.22;;
31848;SDS011;18414;59.352;18.152;2023-05-10T08:36:51;5.20;;;3.90;;
31848;SDS011;18414;59.352;18.152;2023-05-10T08:39:17;5.55;;;3.83;;
31848;SDS011;18414;59.352;18.152;2023-05-10T08:41:44;5.70;;;3.80;;
31848;SDS011;18414;59.352;18.152;2023-05-10T08:44:12;4.45;;;3.40;;
31848;SDS011;18414;59.352;18.152;2023-05-10T08:46:37;7.85;;;3.20;;
31848;SDS011;18414;59.352;18.152;2023-05-10T08:49:08;5.47;;;3.10;;
31848;SDS011;18414;59.352;18.152;2023-05-10T08:51:36;6.22;;;3.72;;
31848;SDS011;18414;59.352;18.152;2023-05-10T08:54:02;7.18;;;3.67;;
31848;SDS011;18414;59.352;18.152;2023-05-10T08:56:30;7.28;;;3.78;;
31848;SDS011;18414;59.352;18.152;2023-05-10T08:58:56;6.85;;;3.50;;
31848;SDS011;18414;59.352;18.152;2023-05-10T09:01:22;8.90;;;3.40;;
31848;SDS011;18414;59.352;18.152;2023-05-10T09:03:48;8.45;;;3.58;;
31848;SDS011;18414;59.352;18.152;2023-05-10T09:06:14;6.93;;;3.72;;
31848;SDS011;18414;59.352;18.152;2023-05-10T09:08:41;5.28;;;3.67;;
31848;SDS011;18414;59.352;18.152;2023-05-10T09:11:08;6.40;;;3.80;;
31848;SDS011;18414;59.352;18.152;2023-05-10T09:13:35;9.00;;;3.60;;
31848;SDS011;18414;59.352;18.152;2023-05-10T09:16:01;7.20;;;3.50;;
31848;SDS011;18414;59.352;18.152;2023-05-10T09:18:27;8.45;;;3.60;;
31848;SDS011;18414;59.352;18.152;2023-05-10T09:20:53;7.97;;;4.00;;
31848;SDS011;18414;59.352;18.152;2023-05-10T09:23:18;10.30;;;4.03;;
31848;SDS011;18414;59.352;18.152;2023-05-10T09:25:43;7.45;;;3.20;;
31848;SDS011;18414;59.352;18.152;2023-05-10T09:28:09;5.90;;;3.28;;
31848;SDS011;18414;59.352;18.152;2023-05-10T09:30:34;7.18;;;4.00;;
31848;SDS011;18414;59.352;18.152;2023-05-10T09:33:00;8.70;;;3.47;;
31848;SDS011;18414;59.352;18.152;2023-05-10T09:35:26;8.05;;;3.65;;
31848;SDS011;18414;59.352;18.152;2023-05-10T09:37:54;11.63;;;3.65;;
31848;SDS011;18414;59.352;18.152;2023-05-10T09:40:23;5.78;;;3.13;;
31848;SDS011;18414;59.352;18.152;2023-05-10T09:45:22;9.20;;;4.30;;
31848;SDS011;18414;59.352;18.152;2023-05-10T09:47:49;6.38;;;3.08;;
31848;SDS011;18414;59.352;18.152;2023-05-10T09:50:15;4.40;;;3.30;;
31848;SDS011;18414;59.352;18.152;2023-05-10T09:52:50;14.18;;;3.40;;
31848;SDS011;18414;59.352;18.152;2023-05-10T09:55:24;7.55;;;3.55;;
31848;SDS011;18414;59.352;18.152;2023-05-10T09:58:11;4.75;;;3.35;;
31848;SDS011;18414;59.352;18.152;2023-05-10T10:00:42;8.43;;;3.75;;
31848;SDS011;18414;59.352;18.152;2023-05-10T10:03:12;13.60;;;4.07;;
31848;SDS011;18414;59.352;18.152;2023-05-10T10:05:40;5.55;;;3.50;;
31848;SDS011;18414;59.352;18.152;2023-05-10T10:08:06;7.18;;;3.30;;
31848;SDS011;18414;59.352;18.152;2023-05-10T10:10:32;4.43;;;3.60;;
31848;SDS011;18414;59.352;18.152;2023-05-10T10:12:58;6.07;;;3.15;;
31848;SDS011;18414;59.352;18.152;2023-05-10T10:15:24;8.38;;;3.30;;
31848;SDS011;18414;59.352;18.152;2023-05-10T10:17:50;5.43;;;3.67;;
31848;SDS011;18414;59.352;18.152;2023-05-10T10:20:17;5.00;;;3.30;;
31848;SDS011;18414;59.352;18.152;2023-05-10T10:22:43;3.85;;;3.45;;
31848;SDS011;18414;59.352;18.152;2023-05-10T10:25:09;5.82;;;3.28;;
31848;SDS011;18414;59.352;18.152;2023-05-10T10:30:23;8.30;;;3.50;;
31848;SDS011;18414;59.352;18.152;2023-05-10T10:35:31;6.68;;;3.40;;
31848;SDS011;18414;59.352;18.152;2023-05-10T10:37:57;5.90;;;3.45;;
31848;SDS011;18414;59.352;18.152;2023-05-10T10:40:32;9.07;;;3.47;;
31848;SDS011;18414;59.352;18.152;2023-05-10T10:43:20;4.85;;;3.55;;
31848;SDS011;18414;59.352;18.152;2023-05-10T10:46:09;8.43;;;3.40;;
31848;SDS011;18414;59.352;18.152;2023-05-10T10:52:12;5.65;;;3.33;;
31848;SDS011;18414;59.352;18.152;2023-05-10T10:54:37;3.45;;;2.80;;
31848;SDS011;18414;59.352;18.152;2023-05-10T10:57:10;12.63;;;3.60;;
31848;SDS011;18414;59.352;18.152;2023-05-10T10:59:42;7.20;;;3.70;;
31848;SDS011;18414;59.352;18.152;2023-05-10T11:05:00;6.70;;;3.33;;
31848;SDS011;18414;59.352;18.152;2023-05-10T11:07:29;6.97;;;3.58;;
31848;SDS011;18414;59.352;18.152;2023-05-10T11:09:54;10.20;;;4.05;;
31848;SDS011;18414;59.352;18.152;2023-05-10T11:12:19;8.73;;;3.75;;
31848;SDS011;18414;59.352;18.152;2023-05-10T11:14:49;6.72;;;3.30;;
31848;SDS011;18414;59.352;18.152;2023-05-10T11:17:24;4.80;;;3.50;;
31848;SDS011;18414;59.352;18.152;2023-05-10T11:20:11;7.30;;;3.30;;
31848;SDS011;18414;59.352;18.152;2023-05-10T11:22:54;5.32;;;3.40;;
31848;SDS011;18414;59.352;18.152;2023-05-10T11:25:20;4.45;;;3.42;;
31848;SDS011;18414;59.352;18.152;2023-05-10T11:27:48;5.93;;;3.92;;
31848;SDS011;18414;59.352;18.152;2023-05-10T11:30:15;6.13;;;3.40;;
31848;SDS011;18414;59.352;18.152;2023-05-10T11:32:41;6.85;;;3.65;;
31848;SDS011;18414;59.352;18.152;2023-05-10T11:35:07;6.00;;;3.50;;
31848;SDS011;18414;59.352;18.152;2023-05-10T11:37:33;6.00;;;3.10;;
31848;SDS011;18414;59.352;18.152;2023-05-10T11:39:59;5.80;;;3.55;;
31848;SDS011;18414;59.352;18.152;2023-05-10T11:42:25;6.00;;;3.60;;
31848;SDS011;18414;59.352;18.152;2023-05-10T11:44:50;5.13;;;3.30;;
31848;SDS011;18414;59.352;18.152;2023-05-10T11:47:17;5.57;;;3.17;;
31848;SDS011;18414;59.352;18.152;2023-05-10T11:49:45;18.58;;;4.38;;
31848;SDS011;18414;59.352;18.152;2023-05-10T11:52:11;7.95;;;3.63;;
31848;SDS011;18414;59.352;18.152;2023-05-10T11:54:37;6.28;;;3.22;;
31848;SDS011;18414;59.352;18.152;2023-05-10T11:57:04;5.93;;;3.55;;
31848;SDS011;18414;59.352;18.152;2023-05-10T11:59:29;13.70;;;3.83;;
31848;SDS011;18414;59.352;18.152;2023-05-10T12:01:55;6.25;;;3.30;;
31848;SDS011;18414;59.352;18.152;2023-05-10T12:04:20;6.10;;;3.58;;
31848;SDS011;18414;59.352;18.152;2023-05-10T12:06:46;5.82;;;3.50;;
31848;SDS011;18414;59.352;18.152;2023-05-10T12:09:12;6.68;;;3.30;;
31848;SDS011;18414;59.352;18.152;2023-05-10T12:11:39;9.73;;;3.60;;
31848;SDS011;18414;59.352;18.152;2023-05-10T12:14:05;6.90;;;3.13;;
31848;SDS011;18414;59.352;18.152;2023-05-10T12:16:31;6.15;;;3.30;;
31848;SDS011;18414;59.352;18.152;2023-05-10T12:18:59;9.27;;;3.67;;
31848;SDS011;18414;59.352;18.152;2023-05-10T12:21:25;11.05;;;3.70;;
31848;SDS011;18414;59.352;18.152;2023-05-10T12:23:53;5.90;;;3.22;;
31848;SDS011;18414;59.352;18.152;2023-05-10T12:26:23;9.57;;;3.42;;
31848;SDS011;18414;59.352;18.152;2023-05-10T12:28:54;5.85;;;3.42;;
31848;SDS011;18414;59.352;18.152;2023-05-10T12:31:20;5.80;;;3.60;;
31848;SDS011;18414;59.352;18.152;2023-05-10T12:33:46;7.82;;;3.47;;
31848;SDS011;18414;59.352;18.152;2023-05-10T12:36:14;5.32;;;3.67;;
31848;SDS011;18414;59.352;18.152;2023-05-10T12:38:44;9.45;;;3.35;;
31848;SDS011;18414;59.352;18.152;2023-05-10T12:41:14;11.43;;;3.53;;
31848;SDS011;18414;59.352;18.152;2023-05-10T12:43:40;9.88;;;3.67;;
31848;SDS011;18414;59.352;18.152;2023-05-10T12:48:35;5.18;;;2.92;;
31848;SDS011;18414;59.352;18.152;2023-05-10T12:51:01;10.13;;;3.42;;
31848;SDS011;18414;59.352;18.152;2023-05-10T12:53:27;7.32;;;3.20;;
31848;SDS011;18414;59.352;18.152;2023-05-10T12:55:53;6.40;;;3.30;;
31848;SDS011;18414;59.352;18.152;2023-05-10T12:58:18;7.32;;;3.65;;
31848;SDS011;18414;59.352;18.152;2023-05-10T13:00:44;6.20;;;3.70;;
31848;SDS011;18414;59.352;18.152;2023-05-10T13:03:10;5.47;;;3.42;;
31848;SDS011;18414;59.352;18.152;2023-05-10T13:05:36;7.72;;;3.10;;
31848;SDS011;18414;59.352;18.152;2023-05-10T13:08:01;4.50;;;2.97;;
31848;SDS011;18414;59.352;18.152;2023-05-10T13:10:27;7.00;;;3.13;;
31848;SDS011;18414;59.352;18.152;2023-05-10T13:12:54;4.68;;;3.03;;
31848;SDS011;18414;59.352;18.152;2023-05-10T13:15:19;6.25;;;2.95;;
31848;SDS011;18414;59.352;18.152;2023-05-10T13:17:45;5.07;;;3.08;;
31848;SDS011;18414;59.352;18.152;2023-05-10T13:20:11;4.43;;;3.08;;
31848;SDS011;18414;59.352;18.152;2023-05-10T13:22:40;5.32;;;2.97;;
31848;SDS011;18414;59.352;18.152;2023-05-10T13:25:06;6.97;;;3.13;;
31848;SDS011;18414;59.352;18.152;2023-05-10T13:27:32;6.68;;;3.25;;
31848;SDS011;18414;59.352;18.152;2023-05-10T13:29:57;5.70;;;2.90;;
31848;SDS011;18414;59.352;18.152;2023-05-10T13:32:24;4.85;;;2.95;;
31848;SDS011;18414;59.352;18.152;2023-05-10T13:34:50;6.13;;;3.13;;
31848;SDS011;18414;59.352;18.152;2023-05-10T13:37:16;5.78;;;3.15;;
31848;SDS011;18414;59.352;18.152;2023-05-10T13:39:41;4.30;;;3.08;;
31848;SDS011;18414;59.352;18.152;2023-05-10T13:42:07;7.20;;;3.20;;
31848;SDS011;18414;59.352;18.152;2023-05-10T13:44:32;5.90;;;3.05;;
31848;SDS011;18414;59.352;18.152;2023-05-10T13:46:58;5.00;;;3.20;;
31848;SDS011;18414;59.352;18.152;2023-05-10T13:49:24;4.05;;;2.92;;
31848;SDS011;18414;59.352;18.152;2023-05-10T13:51:49;7.65;;;2.83;;
31848;SDS011;18414;59.352;18.152;2023-05-10T13:54:16;5.40;;;3.17;;
31848;SDS011;18414;59.352;18.152;2023-05-10T13:56:44;5.60;;;2.78;;
31848;SDS011;18414;59.352;18.152;2023-05-10T13:59:10;5.90;;;2.95;;
31848;SDS011;18414;59.352;18.152;2023-05-10T14:01:35;4.93;;;3.10;;
31848;SDS011;18414;59.352;18.152;2023-05-10T14:04:01;4.22;;;2.92;;
31848;SDS011;18414;59.352;18.152;2023-05-10T14:06:26;4.95;;;2.42;;
31848;SDS011;18414;59.352;18.152;2023-05-10T14:08:52;4.75;;;2.63;;
31848;SDS011;18414;59.352;18.152;2023-05-10T14:11:18;5.38;;;2.80;;
31848;SDS011;18414;59.352;18.152;2023-05-10T14:13:44;5.90;;;2.67;;
31848;SDS011;18414;59.352;18.152;2023-05-10T14:16:10;5.78;;;2.60;;
31848;SDS011;18414;59.352;18.152;2023-05-10T14:18:36;5.35;;;2.67;;
31848;SDS011;18414;59.352;18.152;2023-05-10T14:21:01;4.55;;;2.75;;
31848;SDS011;18414;59.352;18.152;2023-05-10T14:23:28;3.90;;;2.38;;
31848;SDS011;18414;59.352;18.152;2023-05-10T14:25:53;6.95;;;3.25;;
31848;SDS011;18414;59.352;18.152;2023-05-10T14:28:19;5.07;;;3.00;;
31848;SDS011;18414;59.352;18.152;2023-05-10T14:30:45;4.75;;;3.00;;
31848;SDS011;18414;59.352;18.152;2023-05-10T14:33:11;7.90;;;2.90;;
31848;SDS011;18414;59.352;18.152;2023-05-10T14:35:37;5.40;;;2.90;;
31848;SDS011;18414;59.352;18.152;2023-05-10T14:38:02;9.43;;;2.65;;
31848;SDS011;18414;59.352;18.152;2023-05-10T14:40:31;17.88;;;3.60;;
31848;SDS011;18414;59.352;18.152;2023-05-10T14:42:56;3.83;;;2.80;;
31848;SDS011;18414;59.352;18.152;2023-05-10T14:45:22;6.03;;;2.85;;
31848;SDS011;18414;59.352;18.152;2023-05-10T14:47:48;3.53;;;2.72;;
31848;SDS011;18414;59.352;18.152;2023-05-10T14:50:13;8.90;;;2.85;;
31848;SDS011;18414;59.352;18.152;2023-05-10T14:52:39;4.13;;;2.72;;
31848;SDS011;18414;59.352;18.152;2023-05-10T14:55:06;3.58;;;2.70;;
31848;SDS011;18414;59.352;18.152;2023-05-10T14:57:32;14.73;;;4.10;;
31848;SDS011;18414;59.352;18.152;2023-05-10T14:59:58;4.82;;;2.75;;
31848;SDS011;18414;59.352;18.152;2023-05-10T15:02:23;6.78;;;3.08;;
31848;SDS011;18414;59.352;18.152;2023-05-10T15:04:48;9.95;;;3.03;;